sensor_id;sensor_type;location;lat;lon;timestamp;pressure;altitude;pressure_sealevel;temperature;humidity
39739;BME280;25422;48.286;8.484;2024-01-07T00:02:12;93341.25;;;0.40;100.00
39739;BME280;25422;48.286;8.484;2024-01-07T00:04:40;93337.16;;;0.37;100.00
39739;BME280;25422;48.286;8.484;2024-01-07T00:07:05;93330.38;;;0.36;100.00
39739;BME280;25422;48.286;8.484;2024-01-07T00:09:31;93341.38;;;0.38;100.00
39739;BME280;25422;48.286;8.484;2024-01-07T00:11:56;93339.59;;;0.39;100.00
39739;BME280;25422;48.286;8.484;2024-01-07T00:14:21;93343.09;;;0.38;100.00
39739;BME280;25422;48.286;8.484;2024-01-07T00:16:47;93345.00;;;0.36;100.00
39739;BME280;25422;48.286;8.484;2024-01-07T00:19:12;93341.75;;;0.33;100.00
39739;BME280;25422;48.286;8.484;2024-01-07T00:21:38;93341.88;;;0.32;100.00
39739;BME280;25422;48.286;8.484;2024-01-07T00:24:04;93343.38;;;0.35;100.00
39739;BME280;25422;48.286;8.484;2024-01-07T00:26:29;93347.81;;;0.32;100.00
39739;BME280;25422;48.286;8.484;2024-01-07T00:28:55;93340.09;;;0.32;100.00
39739;BME280;25422;48.286;8.484;2024-01-07T00:31:20;93345.25;;;0.32;100.00
39739;BME280;25422;48.286;8.484;2024-01-07T00:33:45;93340.09;;;0.32;100.00
39739;BME280;25422;48.286;8.484;2024-01-07T00:36:11;93343.63;;;0.31;100.00
39739;BME280;25422;48.286;8.484;2024-01-07T00:38:37;93348.78;;;0.31;100.00
39739;BME280;25422;48.286;8.484;2024-01-07T00:41:02;93338.22;;;0.35;100.00
39739;BME280;25422;48.286;8.484;2024-01-07T00:43:28;93343.25;;;0.36;100.00
39739;BME280;25422;48.286;8.484;2024-01-07T00:45:53;93346.75;;;0.35;100.00
39739;BME280;25422;48.286;8.484;2024-01-07T00:48:18;93345.94;;;0.35;100.00
39739;BME280;25422;48.286;8.484;2024-01-07T00:50:44;93343.38;;;0.35;100.00
39739;BME280;25422;48.286;8.484;2024-01-07T00:53:09;93345.38;;;0.31;100.00
39739;BME280;25422;48.286;8.484;2024-01-07T00:55:35;93345.25;;;0.32;100.00
39739;BME280;25422;48.286;8.484;2024-01-07T00:58:01;93345.94;;;0.35;100.00
39739;BME280;25422;48.286;8.484;2024-01-07T01:00:27;93348.53;;;0.35;100.00
39739;BME280;25422;48.286;8.484;2024-01-07T01:02:54;93351.09;;;0.35;100.00
39739;BME280;25422;48.286;8.484;2024-01-07T01:05:19;93351.75;;;0.37;100.00
39739;BME280;25422;48.286;8.484;2024-01-07T01:07:45;93349.09;;;0.38;100.00
39739;BME280;25422;48.286;8.484;2024-01-07T01:10:10;93360.88;;;0.41;100.00
39739;BME280;25422;48.286;8.484;2024-01-07T01:12:36;93360.19;;;0.39;100.00
39739;BME280;25422;48.286;8.484;2024-01-07T01:15:01;93354.09;;;0.40;100.00
39739;BME280;25422;48.286;8.484;2024-01-07T01:17:27;93358.41;;;0.39;100.00
39739;BME280;25422;48.286;8.484;2024-01-07T01:19:52;93356.69;;;0.40;100.00
39739;BME280;25422;48.286;8.484;2024-01-07T01:22:18;93358.97;;;0.43;100.00
39739;BME280;25422;48.286;8.484;2024-01-07T01:24:43;93358.97;;;0.43;100.00
39739;BME280;25422;48.286;8.484;2024-01-07T01:27:12;93357.22;;;0.43;100.00
39739;BME280;25422;48.286;8.484;2024-01-07T01:29:39;93357.91;;;0.45;100.00
39739;BME280;25422;48.286;8.484;2024-01-07T01:32:05;93351.84;;;0.46;100.00
39739;BME280;25422;48.286;8.484;2024-01-07T01:34:31;93357.91;;;0.45;100.00
39739;BME280;25422;48.286;8.484;2024-01-07T01:36:57;93363.06;;;0.45;100.00
39739;BME280;25422;48.286;8.484;2024-01-07T01:39:22;93360.63;;;0.44;100.00
39739;BME280;25422;48.286;8.484;2024-01-07T01:41:47;93354.41;;;0.46;100.00
39739;BME280;25422;48.286;8.484;2024-01-07T01:44:13;93352.63;;;0.47;100.00
39739;BME280;25422;48.286;8.484;2024-01-07T01:46:38;93351.97;;;0.45;100.00
39739;BME280;25422;48.286;8.484;2024-01-07T01:49:04;93360.63;;;0.44;100.00
39739;BME280;25422;48.286;8.484;2024-01-07T01:51:30;93359.13;;;0.41;100.00
39739;BME280;25422;48.286;8.484;2024-01-07T01:53:55;93360.34;;;0.47;100.00
39739;BME280;25422;48.286;8.484;2024-01-07T01:56:26;93360.63;;;0.44;100.00
39739;BME280;25422;48.286;8.484;2024-01-07T01:58:52;93361.56;;;0.43;100.00
39739;BME280;25422;48.286;8.484;2024-01-07T02:01:18;93360.75;;;0.42;100.00
39739;BME280;25422;48.286;8.484;2024-01-07T02:03:43;93356.69;;;0.40;100.00
39739;BME280;25422;48.286;8.484;2024-01-07T02:06:09;93361.81;;;0.40;100.00
39739;BME280;25422;48.286;8.484;2024-01-07T02:08:38;93359.78;;;0.43;100.00
39739;BME280;25422;48.286;8.484;2024-01-07T02:11:20;93359.78;;;0.43;100.00
39739;BME280;25422;48.286;8.484;2024-01-07T02:13:46;93359.13;;;0.41;100.00
39739;BME280;25422;48.286;8.484;2024-01-07T02:16:12;93354.91;;;0.40;100.00
39739;BME280;25422;48.286;8.484;2024-01-07T02:18:40;93365.06;;;0.42;100.00
39739;BME280;25422;48.286;8.484;2024-01-07T02:21:07;93361.81;;;0.40;100.00
39739;BME280;25422;48.286;8.484;2024-01-07T02:23:32;93366.25;;;0.38;100.00
39739;BME280;25422;48.286;8.484;2024-01-07T02:25:58;93362.19;;;0.35;100.00
39739;BME280;25422;48.286;8.484;2024-01-07T02:28:23;93356.75;;;0.28;100.00
39739;BME280;25422;48.286;8.484;2024-01-07T02:30:49;93363.66;;;0.28;100.00
39739;BME280;25422;48.286;8.484;2024-01-07T02:33:14;93367.28;;;0.25;100.00
39739;BME280;25422;48.286;8.484;2024-01-07T02:35:39;93365.66;;;0.24;100.00
39739;BME280;25422;48.286;8.484;2024-01-07T02:38:05;93360.63;;;0.23;100.00
39739;BME280;25422;48.286;8.484;2024-01-07T02:40:30;93360.63;;;0.23;100.00
39739;BME280;25422;48.286;8.484;2024-01-07T02:42:56;93360.50;;;0.24;100.00
39739;BME280;25422;48.286;8.484;2024-01-07T02:45:22;93369.88;;;0.25;100.00
39739;BME280;25422;48.286;8.484;2024-01-07T02:47:48;93366.22;;;0.28;100.00
39739;BME280;25422;48.286;8.484;2024-01-07T02:50:13;93365.03;;;0.32;100.00
39739;BME280;25422;48.286;8.484;2024-01-07T02:52:39;93366.66;;;0.33;100.00
39739;BME280;25422;48.286;8.484;2024-01-07T02:55:04;93368.41;;;0.32;100.00
39739;BME280;25422;48.286;8.484;2024-01-07T02:57:30;93370.16;;;0.32;100.00
39739;BME280;25422;48.286;8.484;2024-01-07T02:59:55;93364.91;;;0.33;100.00
39739;BME280;25422;48.286;8.484;2024-01-07T03:02:21;93364.22;;;0.31;100.00
39739;BME280;25422;48.286;8.484;2024-01-07T03:04:47;93370.03;;;0.33;100.00
39739;BME280;25422;48.286;8.484;2024-01-07T03:07:12;93364.91;;;0.33;100.00
39739;BME280;25422;48.286;8.484;2024-01-07T03:09:38;93365.97;;;0.31;100.00
39739;BME280;25422;48.286;8.484;2024-01-07T03:12:03;93366.78;;;0.31;100.00
39739;BME280;25422;48.286;8.484;2024-01-07T03:14:29;93370.97;;;0.32;100.00
39739;BME280;25422;48.286;8.484;2024-01-07T03:16:54;93369.38;;;0.31;100.00
39739;BME280;25422;48.286;8.484;2024-01-07T03:19:19;93366.09;;;0.29;100.00
39739;BME280;25422;48.286;8.484;2024-01-07T03:21:47;93370.44;;;0.29;100.00
39739;BME280;25422;48.286;8.484;2024-01-07T03:24:12;93367.03;;;0.28;100.00
39739;BME280;25422;48.286;8.484;2024-01-07T03:26:38;93372.88;;;0.30;100.00
39739;BME280;25422;48.286;8.484;2024-01-07T03:29:03;93375.31;;;0.32;100.00
39739;BME280;25422;48.286;8.484;2024-01-07T03:31:29;93376.38;;;0.29;100.00
39739;BME280;25422;48.286;8.484;2024-01-07T03:33:55;93376.38;;;0.29;100.00
39739;BME280;25422;48.286;8.484;2024-01-07T03:36:20;93380.16;;;0.25;100.00
39739;BME280;25422;48.286;8.484;2024-01-07T03:38:46;93374.44;;;0.22;100.00
39739;BME280;25422;48.286;8.484;2024-01-07T03:41:18;93373.63;;;0.21;100.00
39739;BME280;25422;48.286;8.484;2024-01-07T03:43:44;93376.34;;;0.20;100.00
39739;BME280;25422;48.286;8.484;2024-01-07T03:46:10;93378.91;;;0.20;100.00
39739;BME280;25422;48.286;8.484;2024-01-07T03:48:35;93381.16;;;0.13;100.00
39739;BME280;25422;48.286;8.484;2024-01-07T03:51:00;93381.44;;;0.10;100.00
39739;BME280;25422;48.286;8.484;2024-01-07T03:53:26;93378.53;;;0.03;100.00
39739;BME280;25422;48.286;8.484;2024-01-07T03:55:51;93376.78;;;0.04;100.00
39739;BME280;25422;48.286;8.484;2024-01-07T03:58:17;93376.47;;;-0.03;100.00
39739;BME280;25422;48.286;8.484;2024-01-07T04:00:42;93375.78;;;-0.05;100.00
39739;BME280;25422;48.286;8.484;2024-01-07T04:03:07;93381.06;;;-0.07;100.00
39739;BME280;25422;48.286;8.484;2024-01-07T04:05:33;93379.41;;;-0.08;100.00
39739;BME280;25422;48.286;8.484;2024-01-07T04:08:00;93381.53;;;-0.13;100.00
39739;BME280;25422;48.286;8.484;2024-01-07T04:10:26;93376.66;;;-0.16;100.00
39739;BME280;25422;48.286;8.484;2024-01-07T04:12:51;93386.38;;;-0.20;100.00
39739;BME280;25422;48.286;8.484;2024-01-07T04:15:17;93384.59;;;-0.19;100.00
39739;BME280;25422;48.286;8.484;2024-01-07T04:17:42;93387.88;;;-0.17;100.00
39739;BME280;25422;48.286;8.484;2024-01-07T04:20:08;93382.47;;;-0.14;100.00
39739;BME280;25422;48.286;8.484;2024-01-07T04:22:33;93392.41;;;-0.09;100.00
39739;BME280;25422;48.286;8.484;2024-01-07T04:24:59;93390.63;;;-0.09;100.00
39739;BME280;25422;48.286;8.484;2024-01-07T04:27:24;93393.22;;;-0.09;100.00
39739;BME280;25422;48.286;8.484;2024-01-07T04:29:52;93387.25;;;-0.09;100.00
39739;BME280;25422;48.286;8.484;2024-01-07T04:32:18;93392.28;;;-0.08;100.00
39739;BME280;25422;48.286;8.484;2024-01-07T04:34:44;93397.16;;;-0.05;100.00
39739;BME280;25422;48.286;8.484;2024-01-07T04:37:10;93396.22;;;-0.04;100.00
39739;BME280;25422;48.286;8.484;2024-01-07T04:39:36;93396.09;;;-0.02;100.00
39739;BME280;25422;48.286;8.484;2024-01-07T04:42:02;93395.03;;;0.01;100.00
39739;BME280;25422;48.286;8.484;2024-01-07T04:44:27;93397.34;;;0.04;100.00
39739;BME280;25422;48.286;8.484;2024-01-07T04:46:53;93408.22;;;0.07;100.00
39739;BME280;25422;48.286;8.484;2024-01-07T04:49:18;93403.44;;;0.03;100.00
39739;BME280;25422;48.286;8.484;2024-01-07T04:51:43;93401.81;;;0.02;100.00
39739;BME280;25422;48.286;8.484;2024-01-07T04:54:09;93408.56;;;0.03;100.00
39739;BME280;25422;48.286;8.484;2024-01-07T04:56:34;93415.22;;;0.05;100.00
39739;BME280;25422;48.286;8.484;2024-01-07T04:59:00;93402.69;;;0.12;100.00
39739;BME280;25422;48.286;8.484;2024-01-07T05:01:25;93412.03;;;0.13;100.00
39739;BME280;25422;48.286;8.484;2024-01-07T05:03:51;93409.47;;;0.13;100.00
39739;BME280;25422;48.286;8.484;2024-01-07T05:06:16;93416.13;;;0.15;100.00
39739;BME280;25422;48.286;8.484;2024-01-07T05:08:41;93409.19;;;0.16;100.00
39739;BME280;25422;48.286;8.484;2024-01-07T05:11:07;93415.53;;;0.12;100.00
39739;BME280;25422;48.286;8.484;2024-01-07T05:13:33;93416.38;;;0.12;100.00
39739;BME280;25422;48.286;8.484;2024-01-07T05:15:58;93428.84;;;0.17;100.00
39739;BME280;25422;48.286;8.484;2024-01-07T05:18:24;93427.34;;;0.14;100.00
39739;BME280;25422;48.286;8.484;2024-01-07T05:20:50;93428.84;;;0.17;100.00
39739;BME280;25422;48.286;8.484;2024-01-07T05:23:16;93428.59;;;0.20;100.00
39739;BME280;25422;48.286;8.484;2024-01-07T05:25:45;93426.28;;;0.17;100.00
39739;BME280;25422;48.286;8.484;2024-01-07T05:28:13;93433.41;;;0.13;100.00
39739;BME280;25422;48.286;8.484;2024-01-07T05:30:41;93433.53;;;0.12;100.00
39739;BME280;25422;48.286;8.484;2024-01-07T05:33:06;93429.34;;;0.11;100.00
39739;BME280;25422;48.286;8.484;2024-01-07T05:35:32;93435.75;;;0.16;100.00
39739;BME280;25422;48.286;8.484;2024-01-07T05:37:57;93437.38;;;0.17;100.00
39739;BME280;25422;48.286;8.484;2024-01-07T05:40:23;93440.47;;;0.11;100.00
39739;BME280;25422;48.286;8.484;2024-01-07T05:42:49;93446.41;;;0.12;100.00
39739;BME280;25422;48.286;8.484;2024-01-07T05:45:14;93434.38;;;0.12;100.00
39739;BME280;25422;48.286;8.484;2024-01-07T05:47:40;93438.00;;;0.10;100.00
39739;BME280;25422;48.286;8.484;2024-01-07T05:50:08;93439.63;;;0.11;100.00
39739;BME280;25422;48.286;8.484;2024-01-07T05:52:34;93444.28;;;0.17;100.00
39739;BME280;25422;48.286;8.484;2024-01-07T05:54:59;93448.44;;;0.08;100.00
39739;BME280;25422;48.286;8.484;2024-01-07T05:57:25;93442.31;;;0.09;100.00
39739;BME280;25422;48.286;8.484;2024-01-07T05:59:51;93450.22;;;0.17;100.00
39739;BME280;25422;48.286;8.484;2024-01-07T06:02:17;93445.59;;;0.11;100.00
39739;BME280;25422;48.286;8.484;2024-01-07T06:04:43;93451.00;;;0.08;100.00
39739;BME280;25422;48.286;8.484;2024-01-07T06:07:08;93455.50;;;0.16;100.00
39739;BME280;25422;48.286;8.484;2024-01-07T06:09:34;93453.19;;;0.13;100.00
39739;BME280;25422;48.286;8.484;2024-01-07T06:11:59;93454.63;;;0.06;100.00
39739;BME280;25422;48.286;8.484;2024-01-07T06:14:25;93454.50;;;0.07;100.00
39739;BME280;25422;48.286;8.484;2024-01-07T06:16:50;93457.44;;;0.03;100.00
39739;BME280;25422;48.286;8.484;2024-01-07T06:19:16;93459.69;;;-0.04;100.00
39739;BME280;25422;48.286;8.484;2024-01-07T06:21:42;93459.94;;;-0.07;100.00
39739;BME280;25422;48.286;8.484;2024-01-07T06:24:08;93461.94;;;-0.11;100.00
39739;BME280;25422;48.286;8.484;2024-01-07T06:26:33;93454.34;;;-0.12;100.00
39739;BME280;25422;48.286;8.484;2024-01-07T06:28:59;93469.28;;;-0.06;100.00
39739;BME280;25422;48.286;8.484;2024-01-07T06:31:25;93457.34;;;-0.07;100.00
39739;BME280;25422;48.286;8.484;2024-01-07T06:33:51;93463.69;;;-0.11;100.00
39739;BME280;25422;48.286;8.484;2024-01-07T06:36:16;93457.03;;;-0.14;100.00
39739;BME280;25422;48.286;8.484;2024-01-07T06:38:41;93472.34;;;-0.12;100.00
39739;BME280;25422;48.286;8.484;2024-01-07T06:41:07;93472.47;;;-0.14;100.00
39739;BME280;25422;48.286;8.484;2024-01-07T06:43:32;93481.81;;;-0.13;100.00
39739;BME280;25422;48.286;8.484;2024-01-07T06:45:58;93473.72;;;-0.08;100.00
39739;BME280;25422;48.286;8.484;2024-01-07T06:48:23;93468.03;;;-0.12;100.00
39739;BME280;25422;48.286;8.484;2024-01-07T06:50:48;93473.38;;;-0.15;100.00
39739;BME280;25422;48.286;8.484;2024-01-07T06:53:14;93475.03;;;-0.14;100.00
39739;BME280;25422;48.286;8.484;2024-01-07T06:55:39;93472.72;;;-0.17;100.00
39739;BME280;25422;48.286;8.484;2024-01-07T06:58:05;93475.88;;;-0.13;100.00
39739;BME280;25422;48.286;8.484;2024-01-07T07:00:31;93485.31;;;-0.14;100.00
39739;BME280;25422;48.286;8.484;2024-01-07T07:02:56;93485.00;;;-0.21;100.00
39739;BME280;25422;48.286;8.484;2024-01-07T07:05:21;93485.94;;;-0.22;100.00
39739;BME280;25422;48.286;8.484;2024-01-07T07:07:47;93490.63;;;-0.27;100.00
39739;BME280;25422;48.286;8.484;2024-01-07T07:10:12;93493.53;;;-0.31;100.00
39739;BME280;25422;48.286;8.484;2024-01-07T07:12:38;93488.53;;;-0.33;100.00
39739;BME280;25422;48.286;8.484;2024-01-07T07:15:03;93494.50;;;-0.32;100.00
39739;BME280;25422;48.286;8.484;2024-01-07T07:17:29;93493.13;;;-0.37;100.00
39739;BME280;25422;48.286;8.484;2024-01-07T07:19:54;93499.66;;;-0.32;100.00
39739;BME280;25422;48.286;8.484;2024-01-07T07:22:20;93506.91;;;-0.38;100.00
39739;BME280;25422;48.286;8.484;2024-01-07T07:24:45;93509.69;;;-0.41;100.00
39739;BME280;25422;48.286;8.484;2024-01-07T07:27:10;93504.78;;;-0.44;100.00
39739;BME280;25422;48.286;8.484;2024-01-07T07:29:36;93513.66;;;-0.48;100.00
39739;BME280;25422;48.286;8.484;2024-01-07T07:32:01;93508.06;;;-0.53;100.00
39739;BME280;25422;48.286;8.484;2024-01-07T07:34:27;93511.59;;;-0.54;100.00
39739;BME280;25422;48.286;8.484;2024-01-07T07:36:52;93515.78;;;-0.53;100.00
39739;BME280;25422;48.286;8.484;2024-01-07T07:39:18;93517.78;;;-0.57;100.00
39739;BME280;25422;48.286;8.484;2024-01-07T07:41:43;93516.81;;;-0.56;100.00
39739;BME280;25422;48.286;8.484;2024-01-07T07:44:08;93527.94;;;-0.55;100.00
39739;BME280;25422;48.286;8.484;2024-01-07T07:46:34;93526.31;;;-0.56;100.00
39739;BME280;25422;48.286;8.484;2024-01-07T07:48:59;93530.75;;;-0.58;100.00
39739;BME280;25422;48.286;8.484;2024-01-07T07:51:26;93530.75;;;-0.58;100.00
39739;BME280;25422;48.286;8.484;2024-01-07T07:53:51;93529.91;;;-0.59;100.00
39739;BME280;25422;48.286;8.484;2024-01-07T07:56:17;93531.56;;;-0.58;100.00
39739;BME280;25422;48.286;8.484;2024-01-07T07:58:42;93534.00;;;-0.56;100.00
39739;BME280;25422;48.286;8.484;2024-01-07T08:01:08;93533.75;;;-0.53;100.00
39739;BME280;25422;48.286;8.484;2024-01-07T08:03:33;93537.03;;;-0.51;100.00
39739;BME280;25422;48.286;8.484;2024-01-07T08:06:00;93535.88;;;-0.47;100.00
39739;BME280;25422;48.286;8.484;2024-01-07T08:08:25;93547.78;;;-0.46;100.00
39739;BME280;25422;48.286;8.484;2024-01-07T08:10:51;93543.34;;;-0.44;100.00
39739;BME280;25422;48.286;8.484;2024-01-07T08:13:16;93541.47;;;-0.42;100.00
39739;BME280;25422;48.286;8.484;2024-01-07T08:15:42;93547.19;;;-0.38;100.00
39739;BME280;25422;48.286;8.484;2024-01-07T08:18:07;93552.09;;;-0.35;100.00
39739;BME280;25422;48.286;8.484;2024-01-07T08:20:32;93551.41;;;-0.26;100.00
39739;BME280;25422;48.286;8.484;2024-01-07T08:22:58;93555.22;;;-0.20;100.00
39739;BME280;25422;48.286;8.484;2024-01-07T08:25:23;93551.16;;;-0.23;100.00
39739;BME280;25422;48.286;8.484;2024-01-07T08:27:49;93553.22;;;-0.17;100.00
39739;BME280;25422;48.286;8.484;2024-01-07T08:30:14;93561.19;;;-0.20;100.00
39739;BME280;25422;48.286;8.484;2024-01-07T08:32:40;93560.94;;;-0.17;100.00
39739;BME280;25422;48.286;8.484;2024-01-07T08:35:06;93563.38;;;-0.15;100.00
39739;BME280;25422;48.286;8.484;2024-01-07T08:37:32;93563.63;;;-0.07;100.00
39739;BME280;25422;48.286;8.484;2024-01-07T08:39:58;93566.41;;;0.02;100.00
39739;BME280;25422;48.286;8.484;2024-01-07T08:42:24;93565.69;;;-0.01;100.00
39739;BME280;25422;48.286;8.484;2024-01-07T08:44:50;93567.09;;;0.15;100.00
39739;BME280;25422;48.286;8.484;2024-01-07T08:47:15;93566.38;;;0.13;100.00
39739;BME280;25422;48.286;8.484;2024-01-07T08:49:41;93568.56;;;0.17;100.00
39739;BME280;25422;48.286;8.484;2024-01-07T08:52:06;93576.63;;;0.24;100.00
39739;BME280;25422;48.286;8.484;2024-01-07T08:54:32;93577.00;;;0.20;100.00
39739;BME280;25422;48.286;8.484;2024-01-07T08:56:58;93577.56;;;0.23;100.00
39739;BME280;25422;48.286;8.484;2024-01-07T08:59:24;93579.19;;;0.24;100.00
39739;BME280;25422;48.286;8.484;2024-01-07T09:01:49;93583.06;;;0.30;100.00
39739;BME280;25422;48.286;8.484;2024-01-07T09:04:15;93590.41;;;0.35;100.00
39739;BME280;25422;48.286;8.484;2024-01-07T09:06:43;93591.31;;;0.33;100.00
39739;BME280;25422;48.286;8.484;2024-01-07T09:09:09;93597.66;;;0.29;100.00
39739;BME280;25422;48.286;8.484;2024-01-07T09:11:34;93590.72;;;0.41;100.00
39739;BME280;25422;48.286;8.484;2024-01-07T09:14:01;93596.94;;;0.39;100.00
39739;BME280;25422;48.286;8.484;2024-01-07T09:16:26;93604.53;;;0.40;100.00
39739;BME280;25422;48.286;8.484;2024-01-07T09:18:51;93603.47;;;0.43;100.00
39739;BME280;25422;48.286;8.484;2024-01-07T09:21:17;93610.81;;;0.47;100.00
39739;BME280;25422;48.286;8.484;2024-01-07T09:23:44;93611.31;;;0.41;100.00
39739;BME280;25422;48.286;8.484;2024-01-07T09:26:09;93612.00;;;0.43;100.00
39739;BME280;25422;48.286;8.484;2024-01-07T09:28:35;93616.59;;;0.40;100.00
39739;BME280;25422;48.286;8.484;2024-01-07T09:31:00;93613.06;;;0.41;100.00
39739;BME280;25422;48.286;8.484;2024-01-07T09:33:26;93614.22;;;0.48;100.00
39739;BME280;25422;48.286;8.484;2024-01-07T09:35:51;93611.78;;;0.46;100.00
39739;BME280;25422;48.286;8.484;2024-01-07T09:38:17;93620.81;;;0.41;100.00
39739;BME280;25422;48.286;8.484;2024-01-07T09:40:42;93616.94;;;0.35;100.00
39739;BME280;25422;48.286;8.484;2024-01-07T09:43:08;93613.19;;;0.39;100.00
39739;BME280;25422;48.286;8.484;2024-01-07T09:45:36;93627.81;;;0.39;100.00
39739;BME280;25422;48.286;8.484;2024-01-07T09:48:02;93612.94;;;0.42;100.00
39739;BME280;25422;48.286;8.484;2024-01-07T09:50:28;93616.22;;;0.44;100.00
39739;BME280;25422;48.286;8.484;2024-01-07T09:52:56;93616.13;;;0.35;100.00
39739;BME280;25422;48.286;8.484;2024-01-07T09:55:31;93619.75;;;0.32;100.00
39739;BME280;25422;48.286;8.484;2024-01-07T09:57:58;93618.13;;;0.31;100.00
39739;BME280;25422;48.286;8.484;2024-01-07T10:00:26;93616.50;;;0.30;100.00
39739;BME280;25422;48.286;8.484;2024-01-07T10:02:52;93616.50;;;0.19;100.00
39739;BME280;25422;48.286;8.484;2024-01-07T10:05:17;93613.00;;;0.20;100.00
39739;BME280;25422;48.286;8.484;2024-01-07T10:07:43;93613.13;;;0.18;100.00
39739;BME280;25422;48.286;8.484;2024-01-07T10:10:15;93621.31;;;0.23;100.00
39739;BME280;25422;48.286;8.484;2024-01-07T10:12:44;93612.88;;;0.21;100.00
39739;BME280;25422;48.286;8.484;2024-01-07T10:15:09;93618.28;;;0.18;100.00
39739;BME280;25422;48.286;8.484;2024-01-07T10:17:34;93621.88;;;0.27;100.00
39739;BME280;25422;48.286;8.484;2024-01-07T10:20:00;93621.75;;;0.28;100.00
39739;BME280;25422;48.286;8.484;2024-01-07T10:22:26;93618.75;;;0.23;100.00
39739;BME280;25422;48.286;8.484;2024-01-07T10:24:52;93619.16;;;0.28;100.00
39739;BME280;25422;48.286;8.484;2024-01-07T10:27:17;93624.69;;;0.24;100.00
39739;BME280;25422;48.286;8.484;2024-01-07T10:29:43;93620.13;;;0.16;100.00
39739;BME280;25422;48.286;8.484;2024-01-07T10:32:08;93620.13;;;0.16;100.00
39739;BME280;25422;48.286;8.484;2024-01-07T10:34:35;93621.66;;;0.19;100.00
39739;BME280;25422;48.286;8.484;2024-01-07T10:37:02;93619.34;;;0.15;100.00
39739;BME280;25422;48.286;8.484;2024-01-07T10:39:28;93623.09;;;0.11;100.00
39739;BME280;25422;48.286;8.484;2024-01-07T10:41:57;93625.66;;;0.11;100.00
39739;BME280;25422;48.286;8.484;2024-01-07T10:44:28;93634.22;;;0.01;100.00
39739;BME280;25422;48.286;8.484;2024-01-07T10:46:54;93637.13;;;0.07;100.00
39739;BME280;25422;48.286;8.484;2024-01-07T10:49:27;93629.06;;;0.01;100.00
39739;BME280;25422;48.286;8.484;2024-01-07T10:54:29;93626.13;;;0.05;100.00
39739;BME280;25422;48.286;8.484;2024-01-07T10:56:58;93625.41;;;0.14;100.00
39739;BME280;25422;48.286;8.484;2024-01-07T10:59:26;93628.41;;;0.31;100.00
39739;BME280;25422;48.286;8.484;2024-01-07T11:01:52;93622.19;;;0.33;100.00
39739;BME280;25422;48.286;8.484;2024-01-07T11:12:14;93620.38;;;0.57;100.00
39739;BME280;25422;48.286;8.484;2024-01-07T11:14:41;93613.63;;;0.56;100.00
39739;BME280;25422;48.286;8.484;2024-01-07T11:17:10;93614.47;;;0.45;100.00
39739;BME280;25422;48.286;8.484;2024-01-07T11:19:36;93615.53;;;0.42;100.00
39739;BME280;25422;48.286;8.484;2024-01-07T11:22:21;93611.81;;;0.24;100.00
39739;BME280;25422;48.286;8.484;2024-01-07T11:24:47;93616.38;;;0.20;100.00
39739;BME280;25422;48.286;8.484;2024-01-07T11:27:13;93614.16;;;0.27;100.00
39739;BME280;25422;48.286;8.484;2024-01-07T11:29:38;93616.50;;;0.19;100.00
39739;BME280;25422;48.286;8.484;2024-01-07T11:32:05;93618.97;;;0.20;100.00
39739;BME280;25422;48.286;8.484;2024-01-07T11:34:43;93620.00;;;0.17;100.00
39739;BME280;25422;48.286;8.484;2024-01-07T11:37:11;93614.66;;;0.21;100.00
39739;BME280;25422;48.286;8.484;2024-01-07T11:39:38;93614.31;;;0.14;100.00
39739;BME280;25422;48.286;8.484;2024-01-07T11:42:04;93623.91;;;0.01;100.00
39739;BME280;25422;48.286;8.484;2024-01-07T11:44:33;93627.41;;;-0.01;100.00
39739;BME280;25422;48.286;8.484;2024-01-07T11:46:59;93624.84;;;-0.01;100.00
39739;BME280;25422;48.286;8.484;2024-01-07T11:49:24;93617.13;;;-0.01;100.00
39739;BME280;25422;48.286;8.484;2024-01-07T11:51:50;93623.34;;;-0.03;100.00
39739;BME280;25422;48.286;8.484;2024-01-07T11:54:15;93624.63;;;-0.09;100.00
39739;BME280;25422;48.286;8.484;2024-01-07T11:56:41;93630.47;;;-0.07;100.00
39739;BME280;25422;48.286;8.484;2024-01-07T11:59:06;93622.19;;;-0.10;100.00
39739;BME280;25422;48.286;8.484;2024-01-07T12:01:32;93633.97;;;-0.19;100.00
39739;BME280;25422;48.286;8.484;2024-01-07T12:03:58;93633.16;;;-0.20;100.00
39739;BME280;25422;48.286;8.484;2024-01-07T12:06:23;93628.84;;;-0.30;100.00
39739;BME280;25422;48.286;8.484;2024-01-07T12:08:50;93637.38;;;-0.30;100.00
39739;BME280;25422;48.286;8.484;2024-01-07T12:11:16;93633.31;;;-0.32;100.00
39739;BME280;25422;48.286;8.484;2024-01-07T12:13:42;93637.84;;;-0.36;100.00
39739;BME280;25422;48.286;8.484;2024-01-07T12:16:08;93640.63;;;-0.51;100.00
39739;BME280;25422;48.286;8.484;2024-01-07T12:18:43;93632.72;;;-0.47;100.00
39739;BME280;25422;48.286;8.484;2024-01-07T12:21:08;93647.78;;;-0.54;100.00
39739;BME280;25422;48.286;8.484;2024-01-07T12:23:37;93642.84;;;-0.57;100.00
39739;BME280;25422;48.286;8.484;2024-01-07T12:26:10;93643.44;;;-0.65;100.00
39739;BME280;25422;48.286;8.484;2024-01-07T12:28:36;93645.53;;;-0.70;100.00
39739;BME280;25422;48.286;8.484;2024-01-07T12:31:03;93639.47;;;-0.69;100.00
39739;BME280;25422;48.286;8.484;2024-01-07T12:33:29;93645.19;;;-0.65;100.00
39739;BME280;25422;48.286;8.484;2024-01-07T12:35:57;93643.91;;;-0.71;100.00
39739;BME280;25422;48.286;8.484;2024-01-07T12:38:26;93643.28;;;-0.86;100.00
39739;BME280;25422;48.286;8.484;2024-01-07T12:40:52;93644.09;;;-0.86;100.00
39739;BME280;25422;48.286;8.484;2024-01-07T12:43:18;93644.63;;;-1.05;100.00
39739;BME280;25422;48.286;8.484;2024-01-07T12:45:44;93647.56;;;-1.09;100.00
39739;BME280;25422;48.286;8.484;2024-01-07T12:48:09;93645.41;;;-1.15;100.00
39739;BME280;25422;48.286;8.484;2024-01-07T12:50:35;93644.19;;;-1.10;100.00
39739;BME280;25422;48.286;8.484;2024-01-07T12:53:00;93646.03;;;-1.12;100.00
39739;BME280;25422;48.286;8.484;2024-01-07T12:55:26;93654.06;;;-1.16;100.00
39739;BME280;25422;48.286;8.484;2024-01-07T12:57:52;93656.94;;;-1.21;100.00
39739;BME280;25422;48.286;8.484;2024-01-07T13:00:17;93652.53;;;-1.19;100.00
39739;BME280;25422;48.286;8.484;2024-01-07T13:02:43;93657.19;;;-1.24;100.00